Weldon, Iowa
Current Conditions -  °F | °C
As of 1:35 AM on Saturday 25 Oct 2014 (Local Time) from KI75 Reporting Station
Haze Haze  
Wind Chill: 54°   Ceiling: Unl
Heat Index: 54°   Visibility: 3mi
Dew Point: 53°   Wind: 3mph
Humidity: 97%   Direction: 280°W
Pressure: 29.98"   Gusts: NA
Location:  40.9°N, 93.73°W
Report Text: KI75 250635Z AUTO 28003KT 3SM BR CLR 12/12 A2998 RMK AO2 T01210117
Loading
Personal Weather Stations






























Interactive Weather Map
Tropical Storm Tracking
New forecast layout! Learn more

10-Day Weather Forecast

Advertisements
Track Severe Weather on mobile